createdAt,value
2022-10-17T00:01:41.662Z,3.20
2022-10-17T00:04:27.372Z,3.03
2022-10-17T00:07:13.098Z,2.72
2022-10-17T00:09:58.613Z,2.85
2022-10-17T00:12:44.086Z,3.10
2022-10-17T00:15:29.791Z,2.58
2022-10-17T00:18:15.329Z,2.92
2022-10-17T00:21:00.877Z,2.97
2022-10-17T00:23:47.278Z,2.75
2022-10-17T00:26:32.924Z,2.67
2022-10-17T00:29:18.746Z,2.83
2022-10-17T00:32:06.370Z,3.30
2022-10-17T00:34:51.795Z,3.13
2022-10-17T00:37:37.825Z,3.13
2022-10-17T00:40:23.643Z,2.80
2022-10-17T00:43:18.091Z,2.60
2022-10-17T00:46:03.622Z,2.60
2022-10-17T00:48:52.831Z,2.70
2022-10-17T00:51:45.135Z,2.47
2022-10-17T00:54:40.812Z,3.05
2022-10-17T00:57:29.877Z,2.63
2022-10-17T01:00:17.380Z,2.70
2022-10-17T01:03:03.288Z,2.80
2022-10-17T01:05:49.147Z,2.85
2022-10-17T01:08:35.067Z,2.95
2022-10-17T01:11:45.240Z,2.92
2022-10-17T01:15:00.892Z,2.33
2022-10-17T01:18:14.325Z,2.65
2022-10-17T01:21:25.576Z,2.75
2022-10-17T01:24:46.552Z,3.13
2022-10-17T01:27:49.032Z,3.17
2022-10-17T01:30:45.274Z,3.10
2022-10-17T01:33:52.383Z,2.63
2022-10-17T01:36:54.428Z,2.70
2022-10-17T01:39:51.946Z,2.80
2022-10-17T01:42:55.275Z,3.38
2022-10-17T01:45:58.949Z,2.83
2022-10-17T01:48:46.662Z,3.20
2022-10-17T01:51:47.565Z,3.00
2022-10-17T01:54:43.804Z,2.83
2022-10-17T01:57:37.901Z,3.00
2022-10-17T02:00:26.587Z,2.60
2022-10-17T02:03:17.662Z,2.92
2022-10-17T02:06:03.539Z,2.75
2022-10-17T02:08:51.473Z,3.15
2022-10-17T02:11:38.956Z,3.00
2022-10-17T02:14:47.416Z,3.17
2022-10-17T02:17:48.301Z,2.63
2022-10-17T02:20:52.614Z,3.67
2022-10-17T02:23:47.173Z,3.10
2022-10-17T02:26:34.270Z,3.25
2022-10-17T02:29:25.953Z,3.15
2022-10-17T02:32:17.858Z,3.00
2022-10-17T02:35:08.625Z,2.85
2022-10-17T02:37:55.294Z,3.25
2022-10-17T02:40:42.410Z,2.85
2022-10-17T02:43:28.704Z,2.40
2022-10-17T02:46:21.267Z,2.97
2022-10-17T02:49:25.948Z,2.35
2022-10-17T02:52:27.051Z,2.60
2022-10-17T02:55:34.701Z,2.42
2022-10-17T02:58:27.742Z,2.33
2022-10-17T03:01:14.049Z,2.60
2022-10-17T03:04:11.877Z,2.63
2022-10-17T03:06:57.549Z,2.40
2022-10-17T03:09:43.572Z,2.53
2022-10-17T03:12:29.333Z,2.35
2022-10-17T03:15:15.228Z,2.42
2022-10-17T03:18:01.792Z,2.72
2022-10-17T03:20:47.299Z,2.45
2022-10-17T03:23:33.287Z,2.25
2022-10-17T03:26:22.534Z,2.70
2022-10-17T03:29:09.015Z,2.38
2022-10-17T03:31:55.023Z,3.83
2022-10-17T03:34:40.656Z,2.80
2022-10-17T03:37:26.440Z,2.55
2022-10-17T03:40:12.055Z,2.38
2022-10-17T03:42:57.440Z,2.47
2022-10-17T03:45:43.416Z,2.50
2022-10-17T03:48:30.524Z,2.30
2022-10-17T03:51:17.374Z,2.30
2022-10-17T03:54:08.591Z,2.38
2022-10-17T03:56:54.473Z,2.53
2022-10-17T03:59:40.953Z,2.42
2022-10-17T04:02:32.697Z,2.63
2022-10-17T04:05:18.367Z,2.75
2022-10-17T04:08:05.079Z,2.70
2022-10-17T04:11:17.487Z,2.40
2022-10-17T04:14:03.096Z,2.40
2022-10-17T04:16:48.710Z,2.63
2022-10-17T04:19:38.618Z,2.80
2022-10-17T04:22:24.159Z,2.70
2022-10-17T04:25:10.628Z,2.58
2022-10-17T04:27:59.049Z,2.25
2022-10-17T04:30:45.613Z,2.50
2022-10-17T04:33:33.198Z,2.25
2022-10-17T04:36:20.158Z,2.90
2022-10-17T04:39:06.236Z,2.80
2022-10-17T04:41:51.627Z,2.92
2022-10-17T04:44:37.677Z,2.65
2022-10-17T04:47:23.207Z,2.80
2022-10-17T04:50:10.117Z,2.63
2022-10-17T04:52:55.583Z,2.55
2022-10-17T04:55:41.215Z,2.70
2022-10-17T04:58:30.051Z,3.13
2022-10-17T05:01:18.615Z,2.40
2022-10-17T05:04:08.595Z,2.58
2022-10-17T05:06:54.733Z,2.42
2022-10-17T05:10:12.535Z,2.47
2022-10-17T05:13:02.756Z,2.60
2022-10-17T05:15:51.176Z,2.22
2022-10-17T05:18:37.061Z,2.53
2022-10-17T05:21:24.252Z,2.63
2022-10-17T05:24:14.441Z,2.83
2022-10-17T05:27:00.328Z,2.50
2022-10-17T05:29:46.268Z,2.47
2022-10-17T05:32:38.873Z,2.88
2022-10-17T05:35:24.544Z,2.30
2022-10-17T05:38:10.912Z,2.58
2022-10-17T05:41:04.732Z,2.20
2022-10-17T05:43:51.113Z,2.72
2022-10-17T05:46:40.650Z,2.65
2022-10-17T05:49:39.805Z,2.45
2022-10-17T05:52:31.569Z,2.58
2022-10-17T05:55:28.440Z,2.58
2022-10-17T05:58:21.841Z,2.58
2022-10-17T06:01:12.997Z,2.20
2022-10-17T06:03:58.507Z,2.63
2022-10-17T06:06:44.680Z,2.33
2022-10-17T06:09:31.175Z,2.55
2022-10-17T06:12:16.804Z,2.33
2022-10-17T06:15:03.300Z,2.60
2022-10-17T06:17:49.300Z,2.60
2022-10-17T06:20:35.170Z,2.15
2022-10-17T06:23:21.353Z,2.38
2022-10-17T06:26:29.468Z,2.60
2022-10-17T06:29:15.837Z,2.78
2022-10-17T06:32:09.790Z,2.55
2022-10-17T06:34:59.748Z,2.72
2022-10-17T06:37:46.347Z,2.35
2022-10-17T06:40:32.068Z,2.75
2022-10-17T06:43:18.949Z,2.50
2022-10-17T06:46:26.865Z,2.47
2022-10-17T06:49:21.382Z,2.42
2022-10-17T06:52:17.118Z,2.83
2022-10-17T06:55:18.311Z,2.40
2022-10-17T06:58:25.340Z,2.30
2022-10-17T07:01:22.476Z,2.28
2022-10-17T07:04:10.605Z,2.40
2022-10-17T07:06:56.472Z,2.28
2022-10-17T07:09:45.521Z,2.40
2022-10-17T07:12:34.924Z,2.47
2022-10-17T07:15:20.317Z,2.60
2022-10-17T07:18:06.407Z,2.53
2022-10-17T07:20:55.311Z,2.50
2022-10-17T07:23:41.805Z,2.38
2022-10-17T07:26:27.863Z,2.50
2022-10-17T07:29:13.445Z,2.50
2022-10-17T07:32:06.512Z,2.40
2022-10-17T07:34:52.494Z,2.80
2022-10-17T07:37:38.808Z,2.33
2022-10-17T07:40:24.363Z,2.30
2022-10-17T07:43:11.259Z,2.45
2022-10-17T07:45:57.049Z,2.30
2022-10-17T07:48:42.901Z,2.20
2022-10-17T07:51:28.682Z,2.67
2022-10-17T07:54:14.127Z,2.40
2022-10-17T07:56:59.603Z,2.35
2022-10-17T07:59:45.262Z,2.63
2022-10-17T08:02:31.735Z,2.42
2022-10-17T08:05:17.577Z,2.50
2022-10-17T08:08:03.145Z,2.47
2022-10-17T08:10:48.575Z,2.47
2022-10-17T08:13:34.437Z,2.38
2022-10-17T08:16:19.935Z,2.25
2022-10-17T08:19:05.517Z,2.40
2022-10-17T08:21:51.945Z,2.17
2022-10-17T08:24:37.482Z,2.17
2022-10-17T08:27:27.934Z,2.10
2022-10-17T08:30:14.292Z,2.17
2022-10-17T08:32:59.852Z,2.30
2022-10-17T08:35:45.252Z,2.25
2022-10-17T08:38:35.151Z,2.38
2022-10-17T08:41:30.264Z,2.30
2022-10-17T08:44:37.605Z,2.25
2022-10-17T08:47:36.119Z,2.30
2022-10-17T08:50:30.452Z,2.30
2022-10-17T08:53:25.312Z,1.95
2022-10-17T08:56:49.572Z,2.53
2022-10-17T08:59:35.215Z,2.30
2022-10-17T09:02:46.065Z,2.40
2022-10-17T09:05:49.309Z,2.35
2022-10-17T09:08:50.235Z,2.38
2022-10-17T09:12:00.920Z,2.80
2022-10-17T09:15:16.395Z,2.42
2022-10-17T09:18:31.893Z,2.20
2022-10-17T09:21:25.872Z,2.28
2022-10-17T09:24:20.680Z,2.15
2022-10-17T09:27:11.594Z,2.05
2022-10-17T09:30:46.230Z,2.03
2022-10-17T09:33:54.963Z,2.47
2022-10-17T09:36:40.929Z,1.80
2022-10-17T09:39:31.703Z,2.08
2022-10-17T09:42:23.506Z,2.20
2022-10-17T09:45:31.354Z,2.50
2022-10-17T09:48:29.837Z,2.40
2022-10-17T09:51:25.583Z,1.92
2022-10-17T09:54:24.011Z,1.98
2022-10-17T09:57:12.388Z,2.15
2022-10-17T10:00:05.171Z,2.03
2022-10-17T10:03:24.438Z,2.13
2022-10-17T10:06:17.627Z,2.05
2022-10-17T10:09:05.575Z,2.33
2022-10-17T10:11:55.087Z,2.10
2022-10-17T10:14:40.717Z,2.45
2022-10-17T10:17:44.245Z,2.20
2022-10-17T10:20:36.236Z,2.08
2022-10-17T10:23:22.671Z,2.45
2022-10-17T10:26:24.957Z,2.50
2022-10-17T10:29:20.164Z,2.25
2022-10-17T10:32:23.293Z,2.63
2022-10-17T10:35:08.570Z,2.22
2022-10-17T10:37:57.694Z,2.85
2022-10-17T10:40:52.724Z,2.33
2022-10-17T10:43:47.211Z,2.25
2022-10-17T10:46:32.675Z,2.05
2022-10-17T10:49:32.479Z,2.30
2022-10-17T10:52:39.040Z,2.47
2022-10-17T10:55:34.866Z,2.45
2022-10-17T10:58:41.849Z,2.20
2022-10-17T11:01:56.635Z,2.10
2022-10-17T11:04:46.959Z,2.00
2022-10-17T11:07:42.103Z,2.38
2022-10-17T11:10:44.444Z,2.70
2022-10-17T11:13:37.561Z,2.33
2022-10-17T11:16:32.287Z,2.40
2022-10-17T11:19:29.897Z,2.63
2022-10-17T11:22:32.637Z,2.45
2022-10-17T11:25:35.540Z,2.50
2022-10-17T11:28:24.882Z,2.33
2022-10-17T11:31:13.494Z,2.65
2022-10-17T11:34:04.536Z,2.08
2022-10-17T11:36:54.520Z,2.30
2022-10-17T11:39:54.025Z,2.67
2022-10-17T11:42:57.261Z,2.22
2022-10-17T11:45:47.295Z,2.05
2022-10-17T11:48:48.311Z,2.05
2022-10-17T11:52:02.063Z,2.50
2022-10-17T11:55:04.029Z,2.03
2022-10-17T11:58:12.774Z,2.30
2022-10-17T12:01:23.791Z,2.10
2022-10-17T12:04:37.860Z,2.00
2022-10-17T12:07:51.068Z,2.20
2022-10-17T12:11:02.049Z,2.70
2022-10-17T12:13:57.541Z,2.08
2022-10-17T12:16:45.171Z,2.10
2022-10-17T12:19:36.721Z,2.10
2022-10-17T12:22:26.265Z,2.30
2022-10-17T12:25:19.223Z,2.25
2022-10-17T12:28:13.281Z,2.28
2022-10-17T12:31:23.130Z,2.25
2022-10-17T12:34:17.745Z,2.35
2022-10-17T12:37:03.534Z,2.40
2022-10-17T12:39:49.401Z,2.40
2022-10-17T12:42:48.029Z,2.42
2022-10-17T12:45:54.139Z,2.47
2022-10-17T12:48:39.681Z,2.92
2022-10-17T12:51:40.489Z,2.10
2022-10-17T12:54:26.278Z,2.38
2022-10-17T12:57:46.997Z,2.30
2022-10-17T13:01:23.578Z,2.17
2022-10-17T13:04:05.867Z,2.42
2022-10-17T13:06:54.898Z,2.10
2022-10-17T13:09:45.030Z,2.20
2022-10-17T13:12:38.914Z,2.20
2022-10-17T13:15:27.825Z,2.17
2022-10-17T13:18:21.179Z,2.03
2022-10-17T13:21:16.780Z,2.45
2022-10-17T13:24:23.433Z,2.15
2022-10-17T13:27:32.332Z,2.40
2022-10-17T13:30:38.408Z,2.35
2022-10-17T13:33:33.326Z,2.47
2022-10-17T13:36:19.743Z,2.25
2022-10-17T13:39:13.663Z,2.20
2022-10-17T13:42:00.985Z,2.88
2022-10-17T13:44:47.460Z,2.20
2022-10-17T13:47:37.796Z,2.53
2022-10-17T13:50:51.411Z,2.65
2022-10-17T13:53:39.994Z,2.58
2022-10-17T13:56:28.789Z,2.53
2022-10-17T13:59:25.057Z,2.47
2022-10-17T14:02:21.224Z,1.98
2022-10-17T14:05:18.686Z,2.45
2022-10-17T14:08:11.946Z,2.38
2022-10-17T14:10:59.123Z,2.47
2022-10-17T14:13:53.363Z,2.58
2022-10-17T14:16:41.589Z,2.17
2022-10-17T14:19:30.955Z,2.50
2022-10-17T14:22:23.133Z,2.45
2022-10-17T14:25:31.583Z,2.38
2022-10-17T14:28:18.422Z,2.13
2022-10-17T14:31:25.554Z,2.55
2022-10-17T14:34:25.103Z,2.70
2022-10-17T14:37:38.185Z,3.10
2022-10-17T14:40:25.436Z,3.47
2022-10-17T14:43:20.889Z,6.25
2022-10-17T14:46:07.149Z,6.43
2022-10-17T14:48:55.561Z,8.30
2022-10-17T14:51:56.501Z,8.68
2022-10-17T14:54:51.896Z,6.15
2022-10-17T14:57:45.444Z,8.82
2022-10-17T15:00:31.228Z,9.35
2022-10-17T15:03:19.297Z,12.20
2022-10-17T15:06:21.668Z,9.43
2022-10-17T15:09:07.961Z,8.52
2022-10-17T15:11:53.500Z,8.52
2022-10-17T15:14:39.088Z,8.57
2022-10-17T15:17:30.915Z,8.98
2022-10-17T15:20:17.908Z,10.05
2022-10-17T15:23:04.254Z,9.18
2022-10-17T15:25:50.431Z,7.90
2022-10-17T15:28:36.240Z,7.60
2022-10-17T15:31:24.949Z,7.57
2022-10-17T15:34:10.810Z,7.05
2022-10-17T15:36:56.288Z,7.47
2022-10-17T15:39:42.034Z,6.05
2022-10-17T15:42:30.040Z,6.40
2022-10-17T15:45:18.099Z,5.70
2022-10-17T15:48:07.398Z,5.72
2022-10-17T15:50:52.982Z,5.22
2022-10-17T15:53:38.381Z,5.00
2022-10-17T15:56:31.617Z,4.90
2022-10-17T15:59:21.485Z,5.38
2022-10-17T16:02:14.424Z,4.93
2022-10-17T16:05:00.172Z,4.60
2022-10-17T16:07:46.795Z,4.22
2022-10-17T16:10:40.531Z,4.28
2022-10-17T16:13:26.141Z,4.57
2022-10-17T16:16:12.577Z,4.63
2022-10-17T16:18:58.448Z,4.18
2022-10-17T16:21:44.247Z,4.55
2022-10-17T16:24:30.100Z,3.83
2022-10-17T16:27:15.732Z,4.40
2022-10-17T16:30:01.795Z,3.50
2022-10-17T16:32:48.404Z,4.28
2022-10-17T16:35:36.773Z,4.15
2022-10-17T16:38:23.643Z,3.97
2022-10-17T16:41:37.397Z,4.00
2022-10-17T16:44:22.848Z,4.43
2022-10-17T16:47:08.580Z,3.55
2022-10-17T16:49:54.547Z,3.60
2022-10-17T16:52:40.417Z,3.90
2022-10-17T16:55:26.372Z,3.65
2022-10-17T16:58:11.851Z,3.42
2022-10-17T17:01:04.898Z,3.38
2022-10-17T17:03:51.828Z,3.42
2022-10-17T17:06:37.955Z,3.80
2022-10-17T17:09:23.824Z,4.32
2022-10-17T17:12:09.202Z,3.35
2022-10-17T17:14:54.788Z,3.38
2022-10-17T17:17:56.025Z,3.50
2022-10-17T17:20:42.233Z,3.80
2022-10-17T17:23:28.692Z,3.60
2022-10-17T17:26:17.321Z,3.78
2022-10-17T17:29:03.517Z,3.45
2022-10-17T17:31:49.361Z,3.60
2022-10-17T17:34:38.239Z,3.70
2022-10-17T17:37:23.704Z,3.53
2022-10-17T17:40:09.539Z,4.15
2022-10-17T17:42:54.878Z,3.22
2022-10-17T17:45:40.400Z,3.38
2022-10-17T17:48:25.915Z,3.03
2022-10-17T17:51:15.509Z,3.45
2022-10-17T17:54:01.029Z,3.13
2022-10-17T17:56:46.509Z,3.88
2022-10-17T17:59:32.032Z,3.20
2022-10-17T18:02:17.644Z,3.35
2022-10-17T18:05:03.364Z,3.80
2022-10-17T18:07:48.923Z,3.63
2022-10-17T18:10:34.378Z,3.40
2022-10-17T18:13:20.188Z,3.35
2022-10-17T18:16:13.362Z,4.05
2022-10-17T18:19:04.074Z,3.35
2022-10-17T18:21:52.619Z,3.25
2022-10-17T18:24:38.005Z,3.67
2022-10-17T18:27:23.721Z,3.97
2022-10-17T18:30:09.688Z,4.60
2022-10-17T18:32:55.159Z,3.75
2022-10-17T18:35:40.688Z,4.43
2022-10-17T18:38:26.216Z,4.47
2022-10-17T18:41:15.305Z,4.07
2022-10-17T18:44:02.980Z,4.30
2022-10-17T18:46:48.425Z,3.47
2022-10-17T18:49:34.322Z,4.78
2022-10-17T18:52:21.096Z,4.45
2022-10-17T18:55:07.362Z,4.03
2022-10-17T18:57:53.212Z,4.00
2022-10-17T19:00:38.742Z,4.20
2022-10-17T19:03:24.059Z,4.60
2022-10-17T19:06:11.438Z,3.60
2022-10-17T19:08:58.476Z,4.22
2022-10-17T19:11:43.992Z,4.45
2022-10-17T19:14:30.564Z,4.15
2022-10-17T19:17:16.072Z,4.97
2022-10-17T19:20:01.765Z,6.13
2022-10-17T19:22:47.396Z,5.15
2022-10-17T19:25:33.737Z,5.07
2022-10-17T19:28:19.634Z,4.82
2022-10-17T19:31:06.685Z,5.28
2022-10-17T19:33:53.205Z,5.78
2022-10-17T19:36:39.570Z,4.78
2022-10-17T19:39:27.988Z,5.60
2022-10-17T19:42:13.882Z,5.68
2022-10-17T19:44:59.665Z,5.18
2022-10-17T19:47:45.163Z,5.32
2022-10-17T19:50:30.505Z,6.93
2022-10-17T19:53:17.059Z,6.35
2022-10-17T19:56:03.096Z,5.22
2022-10-17T19:58:49.927Z,6.40
2022-10-17T20:01:38.910Z,6.60
2022-10-17T20:04:24.528Z,6.25
2022-10-17T20:07:09.973Z,6.28
2022-10-17T20:09:55.585Z,5.43
2022-10-17T20:12:40.961Z,7.72
2022-10-17T20:15:26.534Z,6.28
2022-10-17T20:18:12.195Z,7.25
2022-10-17T20:21:04.272Z,5.55
2022-10-17T20:23:50.667Z,6.57
2022-10-17T20:26:38.617Z,5.78
2022-10-17T20:29:25.334Z,6.80
2022-10-17T20:32:10.788Z,5.00
2022-10-17T20:34:56.461Z,7.00
2022-10-17T20:37:42.817Z,6.60
2022-10-17T20:40:36.015Z,6.50
2022-10-17T20:43:21.617Z,7.05
2022-10-17T20:46:29.566Z,8.10
2022-10-17T20:49:20.503Z,6.30
2022-10-17T20:52:07.055Z,7.80
2022-10-17T20:54:52.852Z,8.00
2022-10-17T20:57:38.602Z,5.35
2022-10-17T21:00:24.252Z,9.40
2022-10-17T21:03:10.068Z,8.00
2022-10-17T21:05:56.343Z,7.90
2022-10-17T21:08:41.933Z,8.00
2022-10-17T21:11:29.329Z,9.85
2022-10-17T21:14:16.768Z,8.40
2022-10-17T21:17:05.084Z,10.57
2022-10-17T21:19:50.729Z,8.75
2022-10-17T21:22:39.799Z,7.72
2022-10-17T21:25:26.825Z,9.30
2022-10-17T21:28:12.301Z,8.93
2022-10-17T21:31:26.967Z,10.25
2022-10-17T21:34:18.875Z,9.40
2022-10-17T21:37:05.000Z,9.80
2022-10-17T21:39:50.458Z,7.28
2022-10-17T21:42:35.928Z,11.38
2022-10-17T21:45:25.797Z,9.38
2022-10-17T21:48:12.938Z,10.68
2022-10-17T21:51:04.567Z,11.43
2022-10-17T21:53:51.436Z,11.05
2022-10-17T21:56:37.347Z,10.95
2022-10-17T21:59:23.010Z,11.68
2022-10-17T22:02:08.491Z,12.40
2022-10-17T22:04:53.965Z,11.60
2022-10-17T22:07:39.474Z,10.05
2022-10-17T22:10:24.916Z,11.70
2022-10-17T22:13:10.445Z,10.52
2022-10-17T22:16:00.690Z,11.00
2022-10-17T22:18:46.390Z,12.15
2022-10-17T22:21:32.226Z,11.82
2022-10-17T22:27:04.787Z,12.75
2022-10-17T22:29:50.308Z,10.95
2022-10-17T22:32:35.855Z,12.90
2022-10-17T22:35:21.302Z,10.90
2022-10-17T22:38:07.159Z,13.45
2022-10-17T22:40:52.811Z,12.55
2022-10-17T22:43:38.351Z,13.43
2022-10-17T22:46:23.981Z,12.98
2022-10-17T22:49:09.857Z,10.27
2022-10-17T22:51:55.655Z,13.57
2022-10-17T22:54:41.108Z,11.95
2022-10-17T22:57:26.708Z,13.32
2022-10-17T23:00:12.760Z,10.75
2022-10-17T23:02:58.115Z,13.82
2022-10-17T23:05:44.588Z,12.65
2022-10-17T23:08:30.906Z,12.57
2022-10-17T23:11:17.120Z,9.75
2022-10-17T23:14:02.624Z,15.00
2022-10-17T23:16:48.021Z,11.73
2022-10-17T23:19:34.516Z,11.05
2022-10-17T23:22:19.892Z,10.63
2022-10-17T23:25:05.835Z,13.98
2022-10-17T23:27:51.813Z,12.85
2022-10-17T23:30:39.059Z,12.82
2022-10-17T23:33:24.505Z,12.60
2022-10-17T23:36:11.780Z,11.77
2022-10-17T23:38:58.603Z,13.32
2022-10-17T23:41:44.641Z,13.30
2022-10-17T23:44:30.237Z,14.77
2022-10-17T23:47:15.592Z,11.00
2022-10-17T23:50:01.163Z,12.50
2022-10-17T23:52:46.791Z,13.65
2022-10-17T23:55:32.164Z,12.40
2022-10-17T23:58:17.980Z,15.00
